Time;durP1;ratioP1;P1;durP2;ratioP2;P2;SDS_P1;SDS_P2;PMS_P1;PMS_P2;Temp;Humidity;BMP_temperature;BMP_pressure;BME280_temperature;BME280_humidity;BME280_pressure;Samples;Min_cycle;Max_cycle;Signal;HPM_P1;HPM_P2
2022/08/15 00:00:21;;;;;;;11.13;9.33;;;;;;;23.31;55.25;100231.94;5046443;28;20429;-60
2022/08/15 00:02:49;;;;;;;10.38;9.25;;;;;;;23.32;55.37;100230.84;5046128;28;20397;-61
2022/08/15 00:05:20;;;;;;;10.35;9.27;;;;;;;23.29;55.33;100230.28;5046267;28;20880;-60
2022/08/15 00:07:47;;;;;;;10.68;9.65;;;;;;;23.31;55.49;100238.16;5056592;28;20388;-61
2022/08/15 00:10:13;;;;;;;12.20;9.48;;;;;;;23.32;55.48;100228.13;5047519;28;20378;-60
2022/08/15 00:12:39;;;;;;;10.70;9.70;;;;;;;23.28;55.41;100236.81;5051230;28;20399;-60
2022/08/15 00:15:13;;;;;;;10.30;9.35;;;;;;;23.29;55.58;100243.00;5081750;28;20422;-60
2022/08/15 00:17:40;;;;;;;10.55;9.50;;;;;;;23.31;55.52;100246.25;5085895;28;20471;-60
2022/08/15 00:20:08;;;;;;;11.00;9.85;;;;;;;23.30;55.21;100244.66;5085950;28;20378;-60
2022/08/15 00:22:34;;;;;;;11.68;10.50;;;;;;;23.27;55.36;100239.78;5085694;28;20551;-59
2022/08/15 00:25:00;;;;;;;10.68;9.60;;;;;;;23.29;55.24;100237.59;5066843;28;20466;-60
2022/08/15 00:27:26;;;;;;;13.68;10.52;;;;;;;23.27;55.56;100251.38;5052131;28;20392;-60
2022/08/15 00:29:53;;;;;;;11.63;9.80;;;;;;;23.22;55.27;100247.88;5052461;28;20384;-60
2022/08/15 00:32:22;;;;;;;11.57;10.38;;;;;;;23.24;55.62;100245.69;5052362;28;20407;-59
2022/08/15 00:34:48;;;;;;;11.40;10.20;;;;;;;23.21;55.39;100238.94;5052203;28;20503;-60
2022/08/15 00:37:13;;;;;;;11.50;10.40;;;;;;;23.22;55.56;100247.88;5052357;28;20523;-60
2022/08/15 00:41:41;;;;;;;11.85;10.65;;;;;;;23.26;55.64;100246.25;5104827;27;20409;-60
2022/08/15 00:44:16;;;;;;;12.57;11.27;;;;;;;23.24;55.68;100260.03;5104736;28;20817;-60
2022/08/15 00:46:56;;;;;;;13.60;11.45;;;;;;;23.20;55.57;100250.03;5088694;28;20382;-59
2022/08/15 00:49:23;;;;;;;13.38;11.98;;;;;;;23.19;55.43;100254.63;5096309;28;20875;-60
2022/08/15 00:51:53;;;;;;;16.90;12.35;;;;;;;23.17;55.61;100255.94;5087962;28;20393;-60
2022/08/15 00:54:24;;;;;;;13.50;12.02;;;;;;;23.17;55.89;100258.66;5095223;28;20472;-60
2022/08/15 00:59:23;;;;;;;14.15;12.38;;;;;;;23.13;55.45;100252.97;5135952;27;20464;-60
2022/08/15 01:01:50;;;;;;;14.30;12.80;;;;;;;23.16;55.53;100257.84;5094686;28;20458;-60
2022/08/15 01:04:16;;;;;;;14.23;12.73;;;;;;;23.15;55.66;100258.13;5107355;28;20373;-60
2022/08/15 01:06:45;;;;;;;16.90;13.18;;;;;;;23.13;55.89;100255.66;5107646;28;20792;-60
2022/08/15 01:09:12;;;;;;;16.93;13.27;;;;;;;23.12;55.64;100254.06;5107209;28;20380;-61
2022/08/15 01:11:44;;;;;;;14.48;12.93;;;;;;;23.09;55.71;100255.38;5107644;28;20416;-60
2022/08/15 01:16:05;;;;;;;15.13;13.52;;;;;;;23.11;56.00;100260.53;5057742;28;20836;-61
2022/08/15 01:18:31;;;;;;;15.15;13.65;;;;;;;23.12;55.79;100261.34;5046753;28;20838;-61
2022/08/15 01:21:02;;;;;;;16.17;14.47;;;;;;;23.09;55.65;100252.69;5046456;28;20389;-60
2022/08/15 01:23:44;;;;;;;15.70;14.20;;;;;;;23.08;55.77;100256.47;5046679;28;20411;-60
2022/08/15 01:26:11;;;;;;;15.15;13.55;;;;;;;23.07;56.02;100249.44;5046678;28;20390;-60
2022/08/15 01:28:42;;;;;;;16.02;14.32;;;;;;;23.08;55.69;100248.38;5046539;28;20464;-60
2022/08/15 01:31:14;;;;;;;15.87;14.37;;;;;;;23.07;55.97;100246.72;5046736;28;20393;-60
2022/08/15 01:33:53;;;;;;;16.17;14.25;;;;;;;23.11;56.12;100243.50;5046081;28;20408;-60
2022/08/15 01:36:22;;;;;;;16.75;14.95;;;;;;;23.11;55.64;100246.22;5046434;28;20417;-60
2022/08/15 01:39:19;;;;;;;16.27;14.60;;;;;;;23.10;55.83;100242.66;5056166;28;20426;-60
2022/08/15 01:42:07;;;;;;;16.92;15.15;;;;;;;23.11;55.83;100240.81;5047023;28;20483;-60
2022/08/15 01:45:16;;;;;;;17.52;15.38;;;;;;;23.09;55.75;100236.47;5085830;27;2047156;-60
2022/08/15 01:48:00;;;;;;;16.85;15.02;;;;;;;23.11;55.83;100240.81;5135105;27;20398;-60
2022/08/15 01:52:03;;;;;;;15.60;13.98;;;;;;;23.07;55.97;100240.53;5046121;28;20405;-60
2022/08/15 01:54:36;;;;;;;16.13;14.52;;;;;;;23.03;56.07;100240.22;5045705;28;20503;-60
2022/08/15 01:57:03;;;;;;;16.73;14.90;;;;;;;23.03;55.76;100231.25;5046684;28;20482;-60
2022/08/15 02:01:51;;;;;;;18.63;15.27;;;;;;;23.05;55.90;100238.06;5095192;27;2066814;-60
2022/08/15 02:05:25;;;;;;;15.52;14.02;;;;;;;23.02;56.05;100235.06;5066275;28;20400;-60
2022/08/15 02:07:51;;;;;;;15.93;14.33;;;;;;;23.03;55.80;100240.22;5052533;28;20831;-60
2022/08/15 02:10:45;;;;;;;15.17;13.67;;;;;;;23.03;55.75;100233.97;5145574;27;20403;-60
2022/08/15 02:14:33;;;;;;;15.93;14.13;;;;;;;23.01;55.71;100233.41;5074276;27;2073286;-60
2022/08/15 02:16:59;;;;;;;15.65;14.13;;;;;;;23.02;55.89;100237.75;5127838;27;20438;-60
2022/08/15 02:21:28;;;;;;;15.68;14.07;;;;;;;23.01;55.90;100236.97;5100584;27;20392;-60
2022/08/15 02:23:54;;;;;;;15.10;13.70;;;;;;;22.99;55.78;100236.38;5091044;28;20459;-60
2022/08/15 02:26:20;;;;;;;15.27;13.75;;;;;;;22.96;55.87;100231.53;5102307;28;20384;-60
2022/08/15 02:28:46;;;;;;;15.37;13.87;;;;;;;22.98;55.72;100240.19;5105962;28;20384;-61
2022/08/15 02:31:16;;;;;;;15.73;13.95;;;;;;;22.96;56.00;100231.53;5098238;28;20440;-60
2022/08/15 02:33:50;;;;;;;14.73;13.20;;;;;;;23.00;55.68;100242.63;5099576;28;20389;-60
2022/08/15 02:37:55;;;;;;;14.57;13.27;;;;;;;22.97;55.68;100240.44;5050930;28;20489;-59
2022/08/15 02:40:20;;;;;;;15.15;13.55;;;;;;;22.94;55.73;100236.38;5046148;28;20401;-60
2022/08/15 02:42:46;;;;;;;16.05;12.82;;;;;;;22.94;55.67;100238.25;5046329;28;20440;-60
2022/08/15 02:45:13;;;;;;;14.93;13.30;;;;;;;22.94;55.98;100232.84;5045778;28;20404;-60
2022/08/15 02:47:41;;;;;;;14.50;13.07;;;;;;;22.96;55.77;100236.94;5046850;28;20413;-60
2022/08/15 02:50:08;;;;;;;14.75;13.25;;;;;;;22.97;55.91;100235.03;5046491;28;20880;-59
2022/08/15 02:52:42;;;;;;;15.45;12.95;;;;;;;22.95;55.76;100237.19;5045485;28;20436;-61
2022/08/15 02:56:27;;;;;;;15.55;13.00;;;;;;;22.97;55.73;100245.84;5065846;27;2071546;-61
2022/08/15 02:58:53;;;;;;;15.30;13.35;;;;;;;22.94;55.81;100240.97;5147897;27;20399;-60
2022/08/15 03:01:21;;;;;;;14.80;13.30;;;;;;;22.96;56.00;100245.03;5147990;27;20890;-60
2022/08/15 03:03:49;;;;;;;15.48;13.02;;;;;;;22.93;55.73;100250.97;5147906;27;20381;-60
2022/08/15 03:06:21;;;;;;;13.98;12.57;;;;;;;22.93;55.67;100247.47;5141693;27;20437;-60
2022/08/15 03:08:46;;;;;;;14.52;13.15;;;;;;;22.92;55.62;100246.63;5129670;27;20491;-60
2022/08/15 03:11:13;;;;;;;13.93;12.33;;;;;;;22.93;55.64;100253.66;5147854;27;20902;-60
2022/08/15 03:13:40;;;;;;;13.55;12.20;;;;;;;22.92;55.99;100252.03;5148301;27;20373;-61
2022/08/15 03:16:07;;;;;;;14.43;12.93;;;;;;;22.95;55.92;100261.53;5148232;27;20413;-61
2022/08/15 03:18:35;;;;;;;14.50;12.73;;;;;;;22.89;55.88;100256.09;5147775;27;20431;-60
2022/08/15 03:21:05;;;;;;;13.98;12.57;;;;;;;22.87;55.68;100246.63;5147578;27;20386;-60
2022/08/15 03:23:32;;;;;;;15.00;12.93;;;;;;;22.91;55.72;100253.13;5148022;27;20442;-58
2022/08/15 03:26:01;;;;;;;14.18;12.68;;;;;;;22.90;55.58;100256.88;5147476;27;20804;-60
2022/08/15 03:28:32;;;;;;;13.75;12.30;;;;;;;22.89;55.75;100249.88;5147416;27;20389;-60
2022/08/15 03:31:02;;;;;;;13.90;12.50;;;;;;;22.88;56.15;100250.94;5147242;27;20381;-61
2022/08/15 03:33:31;;;;;;;14.23;12.57;;;;;;;22.80;55.66;100238.75;5148042;27;20387;-60
2022/08/15 03:35:57;;;;;;;15.88;12.70;;;;;;;22.83;55.85;100250.91;5147235;27;20496;-60
2022/08/15 03:38:23;;;;;;;13.95;12.65;;;;;;;22.83;55.67;100249.03;5147768;27;20407;-60
2022/08/15 03:40:49;;;;;;;14.67;13.17;;;;;;;22.86;55.62;100255.78;5147702;27;20401;-60
2022/08/15 03:43:22;;;;;;;15.45;12.07;;;;;;;22.89;55.71;100258.78;5129226;27;20740;-60
2022/08/15 03:45:58;;;;;;;14.55;11.95;;;;;;;22.88;55.47;100259.84;5147337;27;20906;-60
2022/08/15 03:48:26;;;;;;;13.07;11.70;;;;;;;22.86;55.75;100255.78;5147280;27;20389;-60
2022/08/15 03:50:54;;;;;;;15.05;12.63;;;;;;;22.88;55.41;100261.75;5147346;27;20908;-61
2022/08/15 03:53:20;;;;;;;13.50;12.02;;;;;;;22.90;55.43;100257.72;5147398;27;20385;-60
2022/08/15 03:55:47;;;;;;;13.38;12.07;;;;;;;22.94;55.34;100249.91;5147089;27;20466;-60
2022/08/15 03:58:13;;;;;;;13.50;12.02;;;;;;;22.98;55.11;100248.28;5147552;27;20385;-60
2022/08/15 04:00:43;;;;;;;13.38;11.98;;;;;;;23.01;55.44;100250.47;5142975;27;20409;-59
2022/08/15 04:03:19;;;;;;;13.18;11.88;;;;;;;23.03;55.13;100253.72;5147251;27;20382;-60
2022/08/15 04:05:49;;;;;;;13.43;11.93;;;;;;;23.07;54.98;100259.44;5144926;27;20438;-60
2022/08/15 04:08:16;;;;;;;15.63;12.23;;;;;;;23.10;54.82;100250.78;5133456;27;20462;-60
2022/08/15 04:10:42;;;;;;;14.25;11.55;;;;;;;23.16;54.55;100257.84;5133303;27;20802;-60
2022/08/15 04:13:09;;;;;;;13.10;11.90;;;;;;;23.21;54.79;100254.34;5133292;27;20378;-60
2022/08/15 04:15:35;;;;;;;13.40;12.05;;;;;;;23.24;54.65;100251.09;5132858;27;20410;-60
2022/08/15 04:18:01;;;;;;;15.73;12.20;;;;;;;23.26;54.83;100244.38;5133030;27;20382;-59
2022/08/15 04:20:28;;;;;;;19.47;12.30;;;;;;;23.36;54.54;100254.41;5132710;27;20446;-60
2022/08/15 04:22:54;;;;;;;15.35;12.73;;;;;;;23.43;54.33;100254.94;5117823;27;20394;-60
2022/08/15 04:28:05;;;;;;;13.18;11.88;;;;;;;23.54;53.77;100246.88;5153819;27;20465;-59
2022/08/15 04:33:25;;;;;;;15.52;12.98;;;;;;;23.75;53.41;100258.50;5136672;27;20497;-60
2022/08/15 04:36:09;;;;;;;15.55;12.75;;;;;;;23.81;53.11;100258.28;5148174;27;20740;-60
2022/08/15 04:38:35;;;;;;;17.23;14.27;;;;;;;23.96;52.73;100262.91;5147504;27;20388;-60
2022/08/15 04:41:03;;;;;;;16.10;13.90;;;;;;;24.09;52.53;100258.03;5145938;27;20855;-60
2022/08/15 04:43:30;;;;;;;17.70;14.85;;;;;;;24.24;52.11;100263.44;5146421;27;20377;-60
2022/08/15 04:45:56;;;;;;;18.23;13.82;;;;;;;24.38;51.61;100258.25;5146313;27;20437;-61
2022/08/15 04:48:21;;;;;;;17.83;13.50;;;;;;;24.60;51.28;100268.84;5148127;27;20905;-60
2022/08/15 04:50:49;;;;;;;17.00;13.53;;;;;;;24.84;50.80;100271.75;5147599;27;20377;-60
2022/08/15 04:53:16;;;;;;;16.65;14.00;;;;;;;25.03;50.33;100268.41;5146604;27;20385;-59
2022/08/15 04:55:43;;;;;;;16.20;13.80;;;;;;;25.15;50.09;100275.16;5145984;27;20381;-60
2022/08/15 04:58:12;;;;;;;17.10;13.93;;;;;;;25.29;49.92;100275.38;5145244;27;20393;-60
2022/08/15 05:00:40;;;;;;;19.33;13.73;;;;;;;25.44;49.52;100266.34;5144603;27;20449;-61
2022/08/15 05:03:14;;;;;;;16.50;13.73;;;;;;;25.85;48.50;100281.56;5145959;27;20404;-62
2022/08/15 05:06:18;;;;;;;20.17;13.95;;;;;;;27.62;44.73;100272.91;5048277;28;20407;-60
2022/08/15 05:08:44;;;;;;;19.00;16.67;;;;;;;29.47;40.71;100269.56;5060108;28;20846;-62
2022/08/15 05:11:12;;;;;;;18.17;14.70;;;;;;;31.31;36.87;100266.69;5045543;28;20421;-61
2022/08/15 05:13:40;;;;;;;17.58;12.43;;;;;;;32.71;34.50;100261.81;5045597;28;20394;-60
2022/08/15 05:16:07;;;;;;;15.23;12.37;;;;;;;34.08;32.32;100267.75;5046382;28;20429;-64
2022/08/15 05:18:37;;;;;;;16.20;12.23;;;;;;;35.01;31.02;100269.25;5044229;28;20455;-62
2022/08/15 05:21:03;;;;;;;13.13;10.95;;;;;;;36.08;29.39;100262.47;5045880;28;20760;-62
2022/08/15 05:23:30;;;;;;;18.33;12.85;;;;;;;37.20;27.67;100247.44;5046474;28;20404;-59
2022/08/15 05:25:58;;;;;;;13.23;11.82;;;;;;;38.29;26.11;100250.34;5046328;28;20421;-60
2022/08/15 05:28:24;;;;;;;22.67;13.13;;;;;;;39.67;24.44;100244.41;5045982;28;20393;-60
2022/08/15 05:31:28;;;;;;;21.92;14.23;;;;;;;41.01;22.75;100244.31;5074608;27;2064583;-61
2022/08/15 05:33:54;;;;;;;14.57;12.73;;;;;;;41.80;21.89;100253.00;5130690;27;20395;-60
2022/08/15 05:36:20;;;;;;;14.67;11.83;;;;;;;42.53;20.99;100251.06;5127974;28;20375;-61
2022/08/15 05:38:50;;;;;;;15.93;12.25;;;;;;;43.06;20.22;100241.78;5128831;27;20374;-61
2022/08/15 05:41:25;;;;;;;11.53;10.33;;;;;;;43.43;19.96;100245.22;5131586;27;20388;-61
2022/08/15 05:44:09;;;;;;;14.40;11.80;;;;;;;43.83;19.56;100255.00;5137194;27;20381;-61
2022/08/15 05:46:39;;;;;;;13.23;9.07;;;;;;;44.60;18.77;100248.38;5136730;27;20977;-62
2022/08/15 05:49:30;;;;;;;13.30;9.77;;;;;;;45.54;17.62;100245.28;5139940;27;20399;-62
2022/08/15 05:52:14;;;;;;;10.52;9.00;;;;;;;46.24;16.96;100246.63;5128063;27;20392;-62
2022/08/15 05:55:04;;;;;;;11.20;9.40;;;;;;;46.95;16.27;100242.94;5142051;27;20392;-62
2022/08/15 05:57:52;;;;;;;10.13;8.35;;;;;;;47.74;15.50;100242.03;5133793;27;20396;-62
2022/08/15 06:00:18;;;;;;;9.65;8.32;;;;;;;48.42;14.73;100242.34;5142566;27;20393;-62
2022/08/15 06:03:03;;;;;;;8.90;8.00;;;;;;;49.30;14.22;100228.22;5131343;27;20749;-62
2022/08/15 06:05:32;;;;;;;8.60;7.72;;;;;;;49.78;13.52;100223.53;5144397;27;20423;-62
2022/08/15 06:08:02;;;;;;;7.93;7.13;;;;;;;50.49;13.18;100231.56;5144943;27;20476;-62
2022/08/15 06:10:36;;;;;;;9.73;7.32;;;;;;;51.22;12.64;100219.19;5130976;27;20410;-62
2022/08/15 06:13:13;;;;;;;9.20;7.22;;;;;;;51.89;11.96;100213.31;5115077;27;20421;-62
2022/08/15 06:16:02;;;;;;;8.60;7.22;;;;;;;52.40;11.75;100223.25;5139580;27;20397;-63
2022/08/15 06:18:30;;;;;;;9.80;7.30;;;;;;;52.51;11.49;100213.03;5143497;27;20392;-62
2022/08/15 06:21:11;;;;;;;8.15;7.03;;;;;;;53.11;11.13;100211.47;5143105;27;20765;-62
2022/08/15 06:23:55;;;;;;;9.43;7.40;;;;;;;53.42;10.36;100215.31;5128269;27;20498;-63
2022/08/15 06:26:36;;;;;;;7.23;6.43;;;;;;;53.94;10.46;100210.28;5128015;27;20426;-62
2022/08/15 06:29:46;;;;;;;9.07;7.43;;;;;;;54.21;10.06;100206.47;5114296;27;20801;-62
2022/08/15 06:32:13;;;;;;;8.82;6.78;;;;;;;53.40;10.63;100203.69;5069503;28;20411;-63
2022/08/15 06:34:58;;;;;;;8.68;7.00;;;;;;;54.25;10.09;100209.88;5079587;28;20387;-63
2022/08/15 06:37:36;;;;;;;8.90;6.82;;;;;;;54.91;9.25;100195.84;5115635;27;20770;-62
2022/08/15 06:40:22;;;;;;;6.75;6.20;;;;;;;55.00;9.32;100195.75;5134691;27;20780;-62
2022/08/15 06:42:47;;;;;;;8.73;6.30;;;;;;;55.21;9.00;100198.66;5115321;27;20474;-62
2022/08/15 06:45:26;;;;;;;8.07;6.50;;;;;;;55.51;8.59;100188.00;5114981;27;20394;-62
2022/08/15 06:47:59;;;;;;;7.20;6.22;;;;;;;55.69;8.51;100187.69;5123696;27;20387;-62
2022/08/15 06:50:37;;;;;;;6.32;5.72;;;;;;;55.78;8.76;100183.16;5126239;27;20814;-63
2022/08/15 06:53:19;;;;;;;6.75;6.15;;;;;;;55.77;8.44;100193.72;5100303;27;20930;-63
2022/08/15 06:55:58;;;;;;;7.07;6.38;;;;;;;56.20;8.60;100188.31;5127144;27;20402;-62
2022/08/15 06:58:50;;;;;;;7.13;6.43;;;;;;;56.14;8.16;100186.72;5100986;27;20886;-63
2022/08/15 07:01:36;;;;;;;9.77;6.30;;;;;;;56.25;8.37;100184.75;5085703;27;20413;-61
2022/08/15 07:04:23;;;;;;;8.03;6.40;;;;;;;56.31;8.50;100188.44;5109864;27;20531;-62
2022/08/15 07:07:03;;;;;;;7.25;6.45;;;;;;;56.27;8.50;100187.88;5107764;27;20402;-63
2022/08/15 07:09:37;;;;;;;7.78;6.43;;;;;;;56.39;8.35;100180.25;5092880;28;20405;-63
2022/08/15 07:12:22;;;;;;;6.85;6.25;;;;;;;56.22;8.11;100180.06;5099416;27;20389;-63
2022/08/15 07:14:58;;;;;;;6.95;5.80;;;;;;;55.90;8.10;100187.69;5111942;27;20403;-62
2022/08/15 07:17:49;;;;;;;7.38;6.13;;;;;;;55.41;8.51;100180.84;5110491;27;20452;-62
2022/08/15 07:20:15;;;;;;;6.80;5.80;;;;;;;54.95;8.51;100176.56;5110107;27;20487;-62
2022/08/15 07:22:41;;;;;;;6.43;5.80;;;;;;;53.91;9.81;100182.13;5119879;27;20441;-61
2022/08/15 07:25:12;;;;;;;6.43;5.70;;;;;;;53.01;9.97;100184.47;5100396;27;20494;-62
2022/08/15 07:27:39;;;;;;;6.50;5.90;;;;;;;52.42;10.59;100181.13;5109980;28;20380;-62
2022/08/15 07:30:14;;;;;;;7.40;6.00;;;;;;;52.03;10.65;100186.44;5098778;27;20475;-62
2022/08/15 07:32:50;;;;;;;6.70;6.10;;;;;;;51.73;10.95;100194.56;5105638;28;20770;-62
2022/08/15 07:35:26;;;;;;;6.63;6.00;;;;;;;50.35;11.93;100186.94;5095747;28;20387;-62
2022/08/15 07:38:05;;;;;;;6.63;6.03;;;;;;;46.58;14.94;100188.78;5106356;27;20503;-62
2022/08/15 07:40:36;;;;;;;6.93;6.32;;;;;;;44.05;17.14;100191.38;5090157;28;20389;-62
2022/08/15 07:43:05;;;;;;;6.38;5.88;;;;;;;42.48;18.76;100201.28;5096998;27;20430;-62
2022/08/15 07:45:38;;;;;;;7.40;6.10;;;;;;;41.54;19.95;100208.78;5099068;28;20879;-61
2022/08/15 07:48:17;;;;;;;8.90;6.05;;;;;;;40.67;21.01;100210.38;5109986;28;20395;-60
2022/08/15 07:50:45;;;;;;;7.20;6.43;;;;;;;40.08;21.83;100216.66;5101447;28;20410;-61
2022/08/15 07:53:20;;;;;;;9.40;6.25;;;;;;;39.51;22.28;100207.75;5106911;28;20422;-61
2022/08/15 07:56:04;;;;;;;7.45;6.20;;;;;;;38.87;23.07;100216.81;5107896;28;20404;-61
2022/08/15 07:58:32;;;;;;;8.00;6.40;;;;;;;38.34;23.92;100216.78;5107755;27;20923;-61
2022/08/15 08:01:07;;;;;;;7.35;6.45;;;;;;;37.70;24.63;100222.78;5107467;28;20395;-61
2022/08/15 08:03:35;;;;;;;6.80;6.20;;;;;;;37.22;25.28;100211.97;5107774;28;20920;-60
2022/08/15 08:06:08;;;;;;;7.00;6.38;;;;;;;36.90;25.38;100214.81;5108082;28;20391;-61
2022/08/15 08:08:42;;;;;;;6.97;6.35;;;;;;;36.55;26.20;100218.34;5109219;28;20499;-60
2022/08/15 08:11:24;;;;;;;7.20;6.53;;;;;;;36.23;26.46;100219.50;5100480;28;20978;-60
2022/08/15 08:14:03;;;;;;;6.93;6.03;;;;;;;35.90;26.88;100217.88;5106767;27;20415;-60
2022/08/15 08:16:49;;;;;;;7.00;6.30;;;;;;;35.58;28.07;100228.81;5105374;28;20419;-60
2022/08/15 08:19:58;;;;;;;8.48;6.60;;;;;;;35.29;28.02;100233.50;5088706;27;20406;-60
2022/08/15 08:22:36;;;;;;;6.97;6.23;;;;;;;35.06;28.37;100237.91;5080704;28;20440;-60
2022/08/15 08:25:51;;;;;;;8.07;6.35;;;;;;;34.82;28.57;100234.84;5105722;28;20425;-60
2022/08/15 08:28:16;;;;;;;7.70;7.00;;;;;;;34.69;29.02;100238.75;5064140;27;20413;-59
2022/08/15 08:31:02;;;;;;;7.20;6.50;;;;;;;34.45;29.40;100234.84;5111292;27;20411;-60
2022/08/15 08:33:31;;;;;;;7.13;6.43;;;;;;;34.35;29.88;100243.53;5089250;28;20397;-60
2022/08/15 08:36:09;;;;;;;7.07;6.30;;;;;;;34.26;29.77;100249.13;5117421;27;20879;-60
2022/08/15 08:38:46;;;;;;;7.40;6.68;;;;;;;34.20;30.18;100247.75;5119230;27;20397;-60
2022/08/15 08:41:42;;;;;;;7.82;6.90;;;;;;;34.04;30.45;100249.53;5100530;27;20391;-60
2022/08/15 08:44:31;;;;;;;7.77;6.63;;;;;;;33.98;30.82;100246.22;5104766;28;20393;-60
2022/08/15 08:47:26;;;;;;;8.10;6.63;;;;;;;33.96;30.64;100254.00;5101110;28;20478;-60
2022/08/15 08:50:22;;;;;;;9.50;7.13;;;;;;;33.91;30.91;100243.22;5080553;28;20963;-60
2022/08/15 08:53:09;;;;;;;7.65;6.88;;;;;;;33.82;30.94;100237.00;5105323;28;20397;-60
2022/08/15 08:56:19;;;;;;;7.72;6.53;;;;;;;33.71;31.18;100239.38;5105364;28;20387;-61
2022/08/15 08:58:51;;;;;;;8.15;7.32;;;;;;;33.78;31.27;100247.03;5099340;27;20488;-60
2022/08/15 09:01:25;;;;;;;8.45;7.30;;;;;;;33.75;31.40;100243.03;5097815;28;20893;-60
2022/08/15 09:04:05;;;;;;;8.17;6.90;;;;;;;33.78;31.36;100247.03;5107799;28;20421;-60
2022/08/15 09:06:38;;;;;;;7.32;6.65;;;;;;;33.73;31.07;100234.31;5090675;28;20370;-60
2022/08/15 09:09:22;;;;;;;8.17;6.80;;;;;;;33.67;31.59;100230.16;5108920;28;20476;-60
2022/08/15 09:12:02;;;;;;;7.72;6.95;;;;;;;33.71;31.39;100237.41;5090477;28;20394;-60
2022/08/15 09:14:28;;;;;;;7.68;6.63;;;;;;;33.60;31.67;100229.88;5108907;28;20378;-60
2022/08/15 09:16:58;;;;;;;7.67;6.97;;;;;;;33.52;31.84;100235.13;5109136;28;20391;-60
2022/08/15 09:19:42;;;;;;;7.75;6.95;;;;;;;33.50;32.06;100231.91;5105263;28;20382;-60
2022/08/15 09:22:08;;;;;;;8.23;6.85;;;;;;;33.52;32.33;100234.31;5092416;28;20396;-60
2022/08/15 09:24:34;;;;;;;11.20;7.67;;;;;;;33.48;32.63;100227.91;5092724;28;20381;-59
2022/08/15 09:27:14;;;;;;;7.65;6.75;;;;;;;33.42;32.67;100226.47;5108989;28;20398;-60
2022/08/15 09:29:46;;;;;;;11.10;7.60;;;;;;;33.45;32.58;100229.38;5087586;28;20413;-60
2022/08/15 09:32:34;;;;;;;7.90;7.10;;;;;;;33.42;32.36;100227.31;5088685;28;20400;-60
2022/08/15 09:35:23;;;;;;;9.32;7.25;;;;;;;33.16;32.89;100230.25;5088935;28;20433;-60
2022/08/15 09:37:55;;;;;;;9.00;6.72;;;;;;;33.23;32.80;100225.03;5103225;28;20393;-59
2022/08/15 09:40:44;;;;;;;11.10;7.25;;;;;;;33.34;32.92;100228.97;5115662;28;21193;-59
2022/08/15 09:43:30;;;;;;;7.90;6.60;;;;;;;33.33;32.64;100230.13;5086841;28;20910;-59
2022/08/15 09:46:12;;;;;;;8.30;7.03;;;;;;;33.32;32.81;100231.25;5087981;28;20385;-60
2022/08/15 09:49:03;;;;;;;8.20;7.03;;;;;;;33.29;33.14;100220.13;5088014;28;20374;-60
2022/08/15 09:52:00;;;;;;;7.70;6.80;;;;;;;33.30;32.86;100222.53;5089258;28;20420;-60
2022/08/15 09:54:29;;;;;;;8.82;6.90;;;;;;;33.27;33.21;100222.41;5057453;28;20755;-60
2022/08/15 09:57:20;;;;;;;10.27;7.38;;;;;;;33.22;32.89;100228.09;5089486;28;20400;-60
2022/08/15 09:59:51;;;;;;;8.02;7.07;;;;;;;33.12;33.36;100221.88;5089466;28;20393;-60
2022/08/15 10:02:19;;;;;;;7.90;6.50;;;;;;;33.06;33.18;100216.88;5089485;28;20466;-60
2022/08/15 10:04:44;;;;;;;7.40;6.60;;;;;;;32.94;32.66;100220.38;5089506;28;20385;-60
2022/08/15 10:07:10;;;;;;;7.47;6.77;;;;;;;32.88;33.46;100222.50;5089388;28;20396;-60
2022/08/15 10:09:41;;;;;;;7.80;7.00;;;;;;;32.90;33.03;100211.16;5088943;28;20783;-60
2022/08/15 10:12:06;;;;;;;7.93;7.20;;;;;;;33.02;33.34;100219.47;5089381;28;20373;-60
2022/08/15 10:14:53;;;;;;;7.80;7.00;;;;;;;32.99;33.47;100211.13;5089183;28;20388;-60
2022/08/15 10:17:34;;;;;;;8.13;6.93;;;;;;;32.89;33.09;100210.38;5091412;28;20372;-60
2022/08/15 10:20:15;;;;;;;8.45;6.75;;;;;;;32.82;32.86;100201.84;5092859;28;20442;-60
2022/08/15 10:22:44;;;;;;;7.50;5.87;;;;;;;32.74;32.88;100206.28;5093168;28;20369;-60
2022/08/15 10:25:28;;;;;;;8.77;6.27;;;;;;;32.64;32.44;100214.88;5092938;28;20759;-59
2022/08/15 10:27:57;;;;;;;8.40;6.55;;;;;;;32.76;32.42;100208.69;5092911;28;20384;-60
2022/08/15 10:30:31;;;;;;;6.22;5.63;;;;;;;32.85;32.10;100206.69;5092682;28;20413;-61
2022/08/15 10:32:59;;;;;;;6.13;5.28;;;;;;;32.90;31.95;100203.75;5092950;28;20468;-60
2022/08/15 10:35:53;;;;;;;6.15;5.63;;;;;;;33.00;31.98;100201.75;5092630;28;20472;-60
2022/08/15 10:38:24;;;;;;;5.80;5.25;;;;;;;33.00;31.94;100197.06;5090991;28;20480;-60
2022/08/15 10:41:14;;;;;;;6.10;5.60;;;;;;;33.10;32.09;100196.66;5092855;28;20381;-61
2022/08/15 10:44:20;;;;;;;5.78;5.28;;;;;;;33.14;30.74;100185.84;5106504;27;20431;-61
2022/08/15 10:46:46;;;;;;;7.47;5.40;;;;;;;33.22;30.69;100192.41;5084716;28;20411;-61
2022/08/15 10:49:34;;;;;;;6.50;5.67;;;;;;;33.33;30.53;100188.91;5111341;27;20836;-60
2022/08/15 10:52:32;;;;;;;6.20;5.50;;;;;;;33.36;29.83;100190.16;5101701;27;20467;-60
2022/08/15 10:55:07;;;;;;;5.57;5.07;;;;;;;33.39;30.36;100192.25;5110958;28;20470;-60
2022/08/15 10:57:48;;;;;;;7.73;5.63;;;;;;;33.45;30.24;100185.41;5108491;28;20774;-60
2022/08/15 11:00:39;;;;;;;6.30;5.20;;;;;;;33.41;29.55;100183.69;5109185;28;20468;-60
2022/08/15 11:03:18;;;;;;;6.82;5.72;;;;;;;33.39;29.66;100166.72;5103216;28;20432;-62
2022/08/15 11:05:56;;;;;;;6.20;5.60;;;;;;;33.31;29.73;100179.38;5105203;27;20396;-59
2022/08/15 11:08:23;;;;;;;5.88;5.20;;;;;;;33.36;29.88;100175.63;5110248;27;20453;-59
2022/08/15 11:10:49;;;;;;;5.47;4.90;;;;;;;33.37;29.27;100180.81;5110493;27;20411;-59
2022/08/15 11:13:17;;;;;;;5.63;4.88;;;;;;;33.44;29.21;100174.75;5110804;28;20379;-59
2022/08/15 11:15:58;;;;;;;4.90;4.50;;;;;;;33.44;27.98;100172.81;5107602;27;20402;-59
2022/08/15 11:18:35;;;;;;;6.97;5.15;;;;;;;33.36;28.60;100170.94;5110838;28;20410;-59
2022/08/15 11:21:36;;;;;;;7.68;5.40;;;;;;;33.44;28.90;100158.25;5085705;28;20391;-59
2022/08/15 11:24:07;;;;;;;6.13;5.53;;;;;;;33.51;28.79;100161.25;5086146;28;20486;-60
2022/08/15 11:26:45;;;;;;;7.20;5.38;;;;;;;33.52;28.66;100158.16;5106267;28;20388;-59
2022/08/15 11:29:23;;;;;;;5.82;5.22;;;;;;;33.59;28.96;100152.13;5108193;28;20411;-59
2022/08/15 11:31:51;;;;;;;5.35;4.82;;;;;;;33.58;28.70;100149.72;5105001;28;20460;-59
2022/08/15 11:34:39;;;;;;;5.30;4.80;;;;;;;33.61;28.62;100144.34;5109503;28;20841;-60
2022/08/15 11:39:15;;;;;;;5.20;4.70;;;;;;;33.72;28.86;100136.50;5064034;27;2153668;-60
2022/08/15 11:41:47;;;;;;;5.60;5.00;;;;;;;33.75;28.38;100138.56;5139540;27;20873;-60
2022/08/15 11:44:14;;;;;;;5.53;5.00;;;;;;;33.76;28.52;100129.16;5131767;27;20377;-60
2022/08/15 11:46:40;;;;;;;6.30;5.70;;;;;;;33.83;28.54;100125.88;5127580;27;20407;-61
2022/08/15 11:49:13;;;;;;;5.45;4.80;;;;;;;33.87;27.85;100126.78;5127649;27;20378;-60
2022/08/15 11:51:43;;;;;;;5.73;4.70;;;;;;;33.90;27.42;100131.59;5129791;27;20430;-60
2022/08/15 11:54:12;;;;;;;4.93;4.40;;;;;;;33.89;26.81;100124.50;5131121;27;20377;-59
2022/08/15 11:56:44;;;;;;;5.10;4.70;;;;;;;33.89;27.02;100139.06;5138478;27;20378;-60
2022/08/15 11:59:25;;;;;;;5.60;5.05;;;;;;;33.85;27.30;100131.81;5140474;27;20490;-61
2022/08/15 12:01:59;;;;;;;5.57;4.57;;;;;;;33.84;27.39;100127.47;5137740;27;20420;-62
2022/08/15 12:04:31;;;;;;;4.88;4.30;;;;;;;33.87;26.91;100122.09;5135125;27;20945;-61
2022/08/15 12:06:57;;;;;;;5.53;4.70;;;;;;;33.85;27.15;100124.41;5135202;27;20395;-61
2022/08/15 12:09:28;;;;;;;5.70;4.65;;;;;;;33.87;27.30;100127.59;5143060;27;20405;-60
2022/08/15 12:11:54;;;;;;;5.63;4.70;;;;;;;33.89;27.47;100135.50;5133587;27;20395;-60
2022/08/15 12:14:23;;;;;;;6.13;4.95;;;;;;;33.87;27.11;100130.34;5137022;27;20401;-60